sensor_id;sensor_type;location;lat;lon;timestamp;pressure;altitude;pressure_sealevel;temperature;humidity
2268;BME280;11052;43.338;25.502;2022-08-19T00:00:34;100066.22;;;23.35;100.00
2268;BME280;11052;43.338;25.502;2022-08-19T00:03:01;100067.47;;;23.31;100.00
2268;BME280;11052;43.338;25.502;2022-08-19T00:05:28;100067.47;;;23.31;100.00
2268;BME280;11052;43.338;25.502;2022-08-19T00:07:56;100069.13;;;23.32;100.00
2268;BME280;11052;43.338;25.502;2022-08-19T00:10:23;100070.09;;;23.31;100.00
2268;BME280;11052;43.338;25.502;2022-08-19T00:12:52;100068.44;;;23.30;100.00
2268;BME280;11052;43.338;25.502;2022-08-19T00:15:21;100066.19;;;23.25;100.00
2268;BME280;11052;43.338;25.502;2022-08-19T00:17:48;100061.03;;;23.24;100.00
2268;BME280;11052;43.338;25.502;2022-08-19T00:20:21;100059.66;;;23.29;100.00
2268;BME280;11052;43.338;25.502;2022-08-19T00:22:48;100057.72;;;23.31;100.00
2268;BME280;11052;43.338;25.502;2022-08-19T00:25:17;100054.53;;;23.37;100.00
2268;BME280;11052;43.338;25.502;2022-08-19T00:27:44;100048.94;;;23.40;100.00
2268;BME280;11052;43.338;25.502;2022-08-19T00:30:14;100053.28;;;23.51;100.00
2268;BME280;11052;43.338;25.502;2022-08-19T00:32:41;100046.06;;;23.53;100.00
2268;BME280;11052;43.338;25.502;2022-08-19T00:35:09;100048.84;;;23.51;100.00
2268;BME280;11052;43.338;25.502;2022-08-19T00:37:37;100043.81;;;23.48;100.00
2268;BME280;11052;43.338;25.502;2022-08-19T00:40:10;100046.47;;;23.39;100.00
2268;BME280;11052;43.338;25.502;2022-08-19T00:42:38;100047.13;;;23.31;100.00
2268;BME280;11052;43.338;25.502;2022-08-19T00:45:11;100044.47;;;23.31;100.00
2268;BME280;11052;43.338;25.502;2022-08-19T00:47:40;100042.25;;;23.27;100.00
2268;BME280;11052;43.338;25.502;2022-08-19T00:50:08;100039.56;;;23.17;100.00
2268;BME280;11052;43.338;25.502;2022-08-19T00:52:39;100039.59;;;22.96;100.00
2268;BME280;11052;43.338;25.502;2022-08-19T00:55:13;100049.84;;;22.89;100.00
2268;BME280;11052;43.338;25.502;2022-08-19T00:57:44;100048.22;;;22.98;100.00
2268;BME280;11052;43.338;25.502;2022-08-19T01:00:16;100045.47;;;23.00;100.00
2268;BME280;11052;43.338;25.502;2022-08-19T01:02:45;100064.66;;;23.02;100.00
2268;BME280;11052;43.338;25.502;2022-08-19T01:05:16;100056.88;;;23.00;100.00
2268;BME280;11052;43.338;25.502;2022-08-19T01:07:47;100047.53;;;22.96;100.00
2268;BME280;11052;43.338;25.502;2022-08-19T01:10:18;100052.94;;;22.95;100.00
2268;BME280;11052;43.338;25.502;2022-08-19T01:12:46;100057.66;;;22.91;100.00
2268;BME280;11052;43.338;25.502;2022-08-19T01:15:16;100061.91;;;22.82;100.00
2268;BME280;11052;43.338;25.502;2022-08-19T01:17:46;100051.25;;;22.73;100.00
2268;BME280;11052;43.338;25.502;2022-08-19T01:20:16;100058.34;;;22.72;100.00
2268;BME280;11052;43.338;25.502;2022-08-19T01:22:48;100049.84;;;22.69;100.00
2268;BME280;11052;43.338;25.502;2022-08-19T01:25:19;100059.44;;;22.70;100.00
2268;BME280;11052;43.338;25.502;2022-08-19T01:27:49;100056.22;;;22.66;100.00
2268;BME280;11052;43.338;25.502;2022-08-19T01:30:20;100062.22;;;22.68;100.00
2268;BME280;11052;43.338;25.502;2022-08-19T01:32:49;100060.91;;;22.63;100.00
2268;BME280;11052;43.338;25.502;2022-08-19T01:35:17;100067.50;;;22.47;100.00
2268;BME280;11052;43.338;25.502;2022-08-19T01:37:49;100065.47;;;22.51;100.00
2268;BME280;11052;43.338;25.502;2022-08-19T01:40:18;100071.84;;;22.48;100.00
2268;BME280;11052;43.338;25.502;2022-08-19T01:42:46;100073.31;;;22.41;100.00
2268;BME280;11052;43.338;25.502;2022-08-19T01:45:14;100072.47;;;22.41;100.00
2268;BME280;11052;43.338;25.502;2022-08-19T01:47:41;100079.81;;;22.37;100.00
2268;BME280;11052;43.338;25.502;2022-08-19T01:50:10;100078.97;;;22.37;100.00
2268;BME280;11052;43.338;25.502;2022-08-19T01:52:39;100083.66;;;22.33;100.00
2268;BME280;11052;43.338;25.502;2022-08-19T01:55:11;100073.72;;;22.26;100.00
2268;BME280;11052;43.338;25.502;2022-08-19T01:57:39;100086.34;;;22.22;100.00
2268;BME280;11052;43.338;25.502;2022-08-19T02:00:11;100074.22;;;22.19;100.00
2268;BME280;11052;43.338;25.502;2022-08-19T02:02:39;100079.63;;;22.18;100.00
2268;BME280;11052;43.338;25.502;2022-08-19T02:05:07;100085.28;;;22.13;100.00
2268;BME280;11052;43.338;25.502;2022-08-19T02:07:34;100083.88;;;21.98;100.00
2268;BME280;11052;43.338;25.502;2022-08-19T02:10:03;100084.59;;;21.89;100.00
2268;BME280;11052;43.338;25.502;2022-08-19T02:12:31;100081.97;;;21.89;100.00
2268;BME280;11052;43.338;25.502;2022-08-19T02:14:59;100085.44;;;21.89;100.00
2268;BME280;11052;43.338;25.502;2022-08-19T02:17:26;100084.25;;;21.82;100.00
2268;BME280;11052;43.338;25.502;2022-08-19T02:19:54;100086.19;;;21.80;100.00
2268;BME280;11052;43.338;25.502;2022-08-19T02:22:22;100087.25;;;21.78;100.00
2268;BME280;11052;43.338;25.502;2022-08-19T02:24:51;100084.50;;;21.79;100.00
2268;BME280;11052;43.338;25.502;2022-08-19T02:27:18;100090.13;;;21.86;100.00
2268;BME280;11052;43.338;25.502;2022-08-19T02:29:47;100090.25;;;21.84;100.00
2268;BME280;11052;43.338;25.502;2022-08-19T02:32:15;100093.72;;;21.85;100.00
2268;BME280;11052;43.338;25.502;2022-08-19T02:34:42;100098.75;;;21.88;100.00
2268;BME280;11052;43.338;25.502;2022-08-19T02:37:09;100095.66;;;21.83;100.00
2268;BME280;11052;43.338;25.502;2022-08-19T02:39:57;100102.72;;;21.82;100.00
2268;BME280;11052;43.338;25.502;2022-08-19T02:42:23;100107.53;;;21.77;100.00
2268;BME280;11052;43.338;25.502;2022-08-19T02:44:52;100102.75;;;21.71;100.00
2268;BME280;11052;43.338;25.502;2022-08-19T02:47:21;100100.47;;;21.67;100.00
2268;BME280;11052;43.338;25.502;2022-08-19T02:49:48;100110.59;;;21.62;100.00
2268;BME280;11052;43.338;25.502;2022-08-19T02:52:16;100117.91;;;21.58;100.00
2268;BME280;11052;43.338;25.502;2022-08-19T02:54:43;100123.16;;;21.58;100.00
2268;BME280;11052;43.338;25.502;2022-08-19T02:57:10;100121.13;;;21.50;100.00
2268;BME280;11052;43.338;25.502;2022-08-19T02:59:37;100123.16;;;21.47;100.00
2268;BME280;11052;43.338;25.502;2022-08-19T03:02:06;100121.25;;;21.49;100.00
2268;BME280;11052;43.338;25.502;2022-08-19T03:04:33;100127.50;;;21.48;100.00
2268;BME280;11052;43.338;25.502;2022-08-19T03:07:01;100116.44;;;21.43;100.00
2268;BME280;11052;43.338;25.502;2022-08-19T03:09:28;100126.41;;;21.28;100.00
2268;BME280;11052;43.338;25.502;2022-08-19T03:11:56;100122.25;;;21.13;100.00
2268;BME280;11052;43.338;25.502;2022-08-19T03:14:23;100123.09;;;21.13;100.00
2268;BME280;11052;43.338;25.502;2022-08-19T03:16:51;100132.47;;;21.17;100.00
2268;BME280;11052;43.338;25.502;2022-08-19T03:19:20;100136.66;;;21.20;100.00
2268;BME280;11052;43.338;25.502;2022-08-19T03:21:48;100139.22;;;21.21;100.00
2268;BME280;11052;43.338;25.502;2022-08-19T03:24:15;100143.00;;;21.17;100.00
2268;BME280;11052;43.338;25.502;2022-08-19T03:26:46;100147.31;;;21.18;100.00
2268;BME280;11052;43.338;25.502;2022-08-19T03:29:15;100146.47;;;21.07;100.00
2268;BME280;11052;43.338;25.502;2022-08-19T03:31:43;100163.44;;;20.91;100.00
2268;BME280;11052;43.338;25.502;2022-08-19T03:34:15;100152.72;;;20.82;100.00
2268;BME280;11052;43.338;25.502;2022-08-19T03:36:45;100167.22;;;20.76;100.00
2268;BME280;11052;43.338;25.502;2022-08-19T03:39:13;100166.84;;;20.70;100.00
2268;BME280;11052;43.338;25.502;2022-08-19T03:41:42;100172.41;;;20.78;100.00
2268;BME280;11052;43.338;25.502;2022-08-19T03:44:10;100165.22;;;20.80;100.00
2268;BME280;11052;43.338;25.502;2022-08-19T03:46:37;100171.19;;;20.82;100.00
2268;BME280;11052;43.338;25.502;2022-08-19T03:49:04;100173.94;;;20.80;100.00
2268;BME280;11052;43.338;25.502;2022-08-19T03:51:34;100181.72;;;20.82;100.00
2268;BME280;11052;43.338;25.502;2022-08-19T03:54:06;100176.72;;;20.90;100.00
2268;BME280;11052;43.338;25.502;2022-08-19T03:56:34;100175.41;;;20.95;100.00
2268;BME280;11052;43.338;25.502;2022-08-19T03:59:01;100174.47;;;20.97;100.00
2268;BME280;11052;43.338;25.502;2022-08-19T04:01:29;100179.50;;;21.00;100.00
2268;BME280;11052;43.338;25.502;2022-08-19T04:03:57;100188.47;;;20.97;100.00
2268;BME280;11052;43.338;25.502;2022-08-19T04:06:27;100178.84;;;20.85;100.00
2268;BME280;11052;43.338;25.502;2022-08-19T04:08:57;100185.69;;;20.87;100.00
2268;BME280;11052;43.338;25.502;2022-08-19T04:11:28;100180.81;;;20.94;100.00
2268;BME280;11052;43.338;25.502;2022-08-19T04:13:56;100177.72;;;21.00;100.00
2268;BME280;11052;43.338;25.502;2022-08-19T04:16:25;100184.53;;;21.03;100.00
2268;BME280;11052;43.338;25.502;2022-08-19T04:18:54;100183.84;;;21.12;100.00
2268;BME280;11052;43.338;25.502;2022-08-19T04:21:23;100177.81;;;21.22;100.00
2268;BME280;11052;43.338;25.502;2022-08-19T04:23:51;100175.88;;;21.24;100.00
2268;BME280;11052;43.338;25.502;2022-08-19T04:26:21;100176.97;;;21.33;100.00
2268;BME280;11052;43.338;25.502;2022-08-19T04:28:50;100181.66;;;21.41;100.00
2268;BME280;11052;43.338;25.502;2022-08-19T04:31:20;100180.47;;;21.45;100.00
2268;BME280;11052;43.338;25.502;2022-08-19T04:33:47;100190.56;;;21.51;100.00
2268;BME280;11052;43.338;25.502;2022-08-19T04:36:19;100187.81;;;21.64;100.00
2268;BME280;11052;43.338;25.502;2022-08-19T04:38:47;100179.25;;;21.82;100.00
2268;BME280;11052;43.338;25.502;2022-08-19T04:41:14;100193.19;;;22.07;100.00
2268;BME280;11052;43.338;25.502;2022-08-19T04:44:00;100186.31;;;22.38;100.00
2268;BME280;11052;43.338;25.502;2022-08-19T04:46:28;100184.38;;;22.72;100.00
2268;BME280;11052;43.338;25.502;2022-08-19T04:48:55;100194.69;;;23.07;100.00
2268;BME280;11052;43.338;25.502;2022-08-19T04:51:23;100185.00;;;23.38;100.00
2268;BME280;11052;43.338;25.502;2022-08-19T04:53:51;100184.91;;;23.70;100.00
2268;BME280;11052;43.338;25.502;2022-08-19T04:56:20;100188.53;;;24.09;100.00
2268;BME280;11052;43.338;25.502;2022-08-19T04:58:50;100186.09;;;24.46;100.00
2268;BME280;11052;43.338;25.502;2022-08-19T05:01:22;100180.53;;;24.68;100.00
2268;BME280;11052;43.338;25.502;2022-08-19T05:03:50;100193.94;;;24.96;100.00
2268;BME280;11052;43.338;25.502;2022-08-19T05:06:19;100187.31;;;25.29;100.00
2268;BME280;11052;43.338;25.502;2022-08-19T05:08:47;100185.28;;;25.69;100.00
2268;BME280;11052;43.338;25.502;2022-08-19T05:11:16;100189.63;;;25.98;100.00
2268;BME280;11052;43.338;25.502;2022-08-19T05:13:44;100191.78;;;26.39;100.00
2268;BME280;11052;43.338;25.502;2022-08-19T05:16:13;100182.06;;;26.66;100.00
2268;BME280;11052;43.338;25.502;2022-08-19T05:18:41;100189.41;;;26.90;100.00
2268;BME280;11052;43.338;25.502;2022-08-19T05:21:26;100189.47;;;27.16;100.00
2268;BME280;11052;43.338;25.502;2022-08-19T05:24:11;100200.34;;;27.48;100.00
2268;BME280;11052;43.338;25.502;2022-08-19T05:26:40;100194.00;;;27.67;100.00
2268;BME280;11052;43.338;25.502;2022-08-19T05:29:08;100192.63;;;28.05;100.00
2268;BME280;11052;43.338;25.502;2022-08-19T05:31:36;100199.91;;;28.29;100.00
2268;BME280;11052;43.338;25.502;2022-08-19T05:34:05;100199.31;;;28.51;100.00
2268;BME280;11052;43.338;25.502;2022-08-19T05:36:35;100204.84;;;28.82;100.00
2268;BME280;11052;43.338;25.502;2022-08-19T05:39:05;100204.50;;;29.10;100.00
2268;BME280;11052;43.338;25.502;2022-08-19T05:41:32;100204.50;;;29.18;100.00
2268;BME280;11052;43.338;25.502;2022-08-19T05:44:02;100196.50;;;29.42;100.00
2268;BME280;11052;43.338;25.502;2022-08-19T05:46:31;100204.88;;;29.78;100.00
2268;BME280;11052;43.338;25.502;2022-08-19T05:48:58;100200.72;;;29.76;100.00
2268;BME280;11052;43.338;25.502;2022-08-19T05:51:27;100202.03;;;29.80;100.00
2268;BME280;11052;43.338;25.502;2022-08-19T05:53:54;100196.94;;;30.09;100.00
2268;BME280;11052;43.338;25.502;2022-08-19T05:56:21;100201.59;;;30.15;100.00
2268;BME280;11052;43.338;25.502;2022-08-19T05:58:48;100197.88;;;30.47;100.00
2268;BME280;11052;43.338;25.502;2022-08-19T06:01:18;100203.56;;;30.75;100.00
2268;BME280;11052;43.338;25.502;2022-08-19T06:03:45;100195.41;;;31.14;100.00
2268;BME280;11052;43.338;25.502;2022-08-19T06:06:17;100198.13;;;31.58;100.00
2268;BME280;11052;43.338;25.502;2022-08-19T06:08:46;100194.81;;;31.86;100.00
2268;BME280;11052;43.338;25.502;2022-08-19T06:11:19;100198.50;;;32.00;100.00
2268;BME280;11052;43.338;25.502;2022-08-19T06:13:48;100196.53;;;32.08;100.00
2268;BME280;11052;43.338;25.502;2022-08-19T06:16:18;100183.00;;;32.16;100.00
2268;BME280;11052;43.338;25.502;2022-08-19T06:18:49;100190.31;;;32.22;100.00
2268;BME280;11052;43.338;25.502;2022-08-19T06:21:18;100185.31;;;32.19;100.00
2268;BME280;11052;43.338;25.502;2022-08-19T06:23:47;100192.03;;;32.45;100.00
2268;BME280;11052;43.338;25.502;2022-08-19T06:26:17;100193.66;;;32.82;100.00
2268;BME280;11052;43.338;25.502;2022-08-19T06:28:50;100195.19;;;33.19;100.00
2268;BME280;11052;43.338;25.502;2022-08-19T06:31:19;100185.78;;;33.30;100.00
2268;BME280;11052;43.338;25.502;2022-08-19T06:33:47;100180.97;;;33.25;100.00
2268;BME280;11052;43.338;25.502;2022-08-19T06:36:19;100187.53;;;33.44;100.00
2268;BME280;11052;43.338;25.502;2022-08-19T06:38:48;100181.28;;;33.71;100.00
2268;BME280;11052;43.338;25.502;2022-08-19T06:41:15;100182.56;;;33.82;100.00
2268;BME280;11052;43.338;25.502;2022-08-19T06:43:42;100186.91;;;33.76;100.00
2268;BME280;11052;43.338;25.502;2022-08-19T06:46:11;100193.53;;;33.80;100.00
2268;BME280;11052;43.338;25.502;2022-08-19T06:48:39;100195.88;;;33.55;76.18
2268;BME280;11052;43.338;25.502;2022-08-19T06:51:06;100191.69;;;33.46;73.23
2268;BME280;11052;43.338;25.502;2022-08-19T06:53:34;100185.84;;;32.87;71.80
2268;BME280;11052;43.338;25.502;2022-08-19T06:56:04;100185.75;;;33.02;71.11
2268;BME280;11052;43.338;25.502;2022-08-19T06:58:31;100186.53;;;32.96;71.93
2268;BME280;11052;43.338;25.502;2022-08-19T07:01:00;100183.75;;;32.82;74.44
2268;BME280;11052;43.338;25.502;2022-08-19T07:03:30;100181.75;;;32.91;78.07
2268;BME280;11052;43.338;25.502;2022-08-19T07:05:58;100190.44;;;32.93;70.74
2268;BME280;11052;43.338;25.502;2022-08-19T07:08:29;100183.94;;;33.09;73.18
2268;BME280;11052;43.338;25.502;2022-08-19T07:10:56;100186.63;;;33.09;70.98
2268;BME280;11052;43.338;25.502;2022-08-19T07:13:25;100188.72;;;32.64;69.84
2268;BME280;11052;43.338;25.502;2022-08-19T07:15:53;100187.88;;;32.64;75.61
2268;BME280;11052;43.338;25.502;2022-08-19T07:18:20;100181.69;;;32.84;69.32
2268;BME280;11052;43.338;25.502;2022-08-19T07:20:48;100187.13;;;32.91;73.81
2268;BME280;11052;43.338;25.502;2022-08-19T07:23:15;100180.31;;;33.23;70.09
2268;BME280;11052;43.338;25.502;2022-08-19T07:25:44;100189.94;;;33.67;67.51
2268;BME280;11052;43.338;25.502;2022-08-19T07:28:12;100189.78;;;33.40;69.87
2268;BME280;11052;43.338;25.502;2022-08-19T07:30:43;100195.34;;;33.39;67.40
2268;BME280;11052;43.338;25.502;2022-08-19T07:33:12;100185.78;;;33.64;69.98
2268;BME280;11052;43.338;25.502;2022-08-19T07:35:43;100188.31;;;33.72;64.00
2268;BME280;11052;43.338;25.502;2022-08-19T07:38:10;100199.75;;;33.81;62.68
2268;BME280;11052;43.338;25.502;2022-08-19T07:40:37;100195.69;;;33.98;62.57
2268;BME280;11052;43.338;25.502;2022-08-19T07:43:05;100201.25;;;33.90;64.79
2268;BME280;11052;43.338;25.502;2022-08-19T07:45:32;100195.84;;;33.90;62.48
2268;BME280;11052;43.338;25.502;2022-08-19T07:48:01;100198.59;;;34.03;61.71
2268;BME280;11052;43.338;25.502;2022-08-19T07:50:30;100201.34;;;34.16;61.51
2268;BME280;11052;43.338;25.502;2022-08-19T07:52:59;100199.53;;;34.30;63.21
2268;BME280;11052;43.338;25.502;2022-08-19T07:55:27;100204.03;;;34.16;57.66
2268;BME280;11052;43.338;25.502;2022-08-19T07:57:55;100209.13;;;34.39;59.34
2268;BME280;11052;43.338;25.502;2022-08-19T08:00:22;100198.38;;;34.59;58.43
2268;BME280;11052;43.338;25.502;2022-08-19T08:02:52;100205.84;;;34.57;55.34
2268;BME280;11052;43.338;25.502;2022-08-19T08:05:22;100196.13;;;34.63;58.69
2268;BME280;11052;43.338;25.502;2022-08-19T08:08:06;100195.47;;;34.67;57.10
2268;BME280;11052;43.338;25.502;2022-08-19T08:10:50;100189.72;;;35.10;57.41
2268;BME280;11052;43.338;25.502;2022-08-19T08:13:18;100191.78;;;34.81;55.48
2268;BME280;11052;43.338;25.502;2022-08-19T08:15:45;100183.47;;;34.70;58.85
2268;BME280;11052;43.338;25.502;2022-08-19T08:18:12;100182.25;;;34.92;59.01
2268;BME280;11052;43.338;25.502;2022-08-19T08:20:41;100181.00;;;35.28;55.83
2268;BME280;11052;43.338;25.502;2022-08-19T08:23:08;100174.38;;;34.84;52.23
2268;BME280;11052;43.338;25.502;2022-08-19T08:25:55;100183.50;;;34.83;52.17
2268;BME280;11052;43.338;25.502;2022-08-19T08:28:23;100182.63;;;34.49;52.70
2268;BME280;11052;43.338;25.502;2022-08-19T08:30:51;100180.31;;;34.33;52.65
2268;BME280;11052;43.338;25.502;2022-08-19T08:33:21;100175.81;;;34.60;54.62
2268;BME280;11052;43.338;25.502;2022-08-19T08:35:52;100177.88;;;34.65;55.82
2268;BME280;11052;43.338;25.502;2022-08-19T08:38:19;100175.81;;;34.80;53.70
2268;BME280;11052;43.338;25.502;2022-08-19T08:40:49;100175.78;;;34.73;53.15
2268;BME280;11052;43.338;25.502;2022-08-19T08:43:23;100166.72;;;34.94;54.28
2268;BME280;11052;43.338;25.502;2022-08-19T08:45:56;100164.63;;;35.29;53.67
2268;BME280;11052;43.338;25.502;2022-08-19T08:48:36;100169.41;;;35.40;51.80
2268;BME280;11052;43.338;25.502;2022-08-19T08:51:09;100167.75;;;35.33;51.77
2268;BME280;11052;43.338;25.502;2022-08-19T08:53:40;100158.34;;;35.55;50.69
2268;BME280;11052;43.338;25.502;2022-08-19T08:56:10;100160.66;;;35.52;50.36
2268;BME280;11052;43.338;25.502;2022-08-19T08:58:50;100154.47;;;35.38;53.50
2268;BME280;11052;43.338;25.502;2022-08-19T09:01:18;100159.03;;;35.31;54.11
2268;BME280;11052;43.338;25.502;2022-08-19T09:03:48;100159.22;;;35.23;53.35
2268;BME280;11052;43.338;25.502;2022-08-19T09:06:23;100147.03;;;34.94;54.14
2268;BME280;11052;43.338;25.502;2022-08-19T09:08:59;100151.69;;;35.58;53.01
2268;BME280;11052;43.338;25.502;2022-08-19T09:11:39;100156.00;;;35.72;53.00
2268;BME280;11052;43.338;25.502;2022-08-19T09:14:16;100153.53;;;35.64;54.20
2268;BME280;11052;43.338;25.502;2022-08-19T09:16:46;100152.28;;;35.66;52.00
2268;BME280;11052;43.338;25.502;2022-08-19T09:19:15;100148.88;;;35.33;51.30
2268;BME280;11052;43.338;25.502;2022-08-19T09:21:45;100150.09;;;35.43;53.95
2268;BME280;11052;43.338;25.502;2022-08-19T09:24:12;100150.19;;;35.82;51.11
2268;BME280;11052;43.338;25.502;2022-08-19T09:26:39;100134.16;;;35.93;51.28
2268;BME280;11052;43.338;25.502;2022-08-19T09:29:10;100134.81;;;35.82;50.46
2268;BME280;11052;43.338;25.502;2022-08-19T09:31:38;100146.03;;;35.72;50.27
2268;BME280;11052;43.338;25.502;2022-08-19T09:34:05;100144.84;;;35.55;50.46
2268;BME280;11052;43.338;25.502;2022-08-19T09:36:34;100139.75;;;35.21;49.57
2268;BME280;11052;43.338;25.502;2022-08-19T09:39:05;100144.31;;;35.33;50.54
2268;BME280;11052;43.338;25.502;2022-08-19T09:41:32;100132.72;;;35.77;49.27
2268;BME280;11052;43.338;25.502;2022-08-19T09:43:59;100131.06;;;35.83;49.23
2268;BME280;11052;43.338;25.502;2022-08-19T09:46:29;100126.97;;;35.67;49.59
2268;BME280;11052;43.338;25.502;2022-08-19T09:48:59;100129.00;;;35.85;52.37
2268;BME280;11052;43.338;25.502;2022-08-19T09:51:28;100127.59;;;36.14;48.41
2268;BME280;11052;43.338;25.502;2022-08-19T09:53:59;100123.03;;;36.15;48.71
2268;BME280;11052;43.338;25.502;2022-08-19T09:56:32;100129.56;;;36.38;48.06
2268;BME280;11052;43.338;25.502;2022-08-19T09:59:02;100127.50;;;36.59;46.63
2268;BME280;11052;43.338;25.502;2022-08-19T10:01:31;100131.72;;;36.17;45.42
2268;BME280;11052;43.338;25.502;2022-08-19T10:03:59;100125.31;;;36.11;46.94
2268;BME280;11052;43.338;25.502;2022-08-19T10:06:29;100116.06;;;35.94;46.08
2268;BME280;11052;43.338;25.502;2022-08-19T10:08:58;100115.31;;;36.18;48.06
2268;BME280;11052;43.338;25.502;2022-08-19T10:11:33;100119.84;;;36.24;46.78
2268;BME280;11052;43.338;25.502;2022-08-19T10:14:03;100109.53;;;36.46;46.89
2268;BME280;11052;43.338;25.502;2022-08-19T10:16:33;100105.69;;;36.85;45.79
2268;BME280;11052;43.338;25.502;2022-08-19T10:19:00;100108.97;;;37.30;47.78
2268;BME280;11052;43.338;25.502;2022-08-19T10:21:30;100105.97;;;37.20;44.95
2268;BME280;11052;43.338;25.502;2022-08-19T10:23:59;100096.84;;;36.96;44.70
2268;BME280;11052;43.338;25.502;2022-08-19T10:26:33;100103.75;;;36.67;46.02
2268;BME280;11052;43.338;25.502;2022-08-19T10:29:01;100096.19;;;36.51;48.52
2268;BME280;11052;43.338;25.502;2022-08-19T10:31:32;100092.53;;;36.64;45.85
2268;BME280;11052;43.338;25.502;2022-08-19T10:34:00;100088.75;;;36.96;45.51
2268;BME280;11052;43.338;25.502;2022-08-19T10:36:30;100099.94;;;37.00;45.23
2268;BME280;11052;43.338;25.502;2022-08-19T10:39:00;100093.03;;;37.04;45.51
2268;BME280;11052;43.338;25.502;2022-08-19T10:41:35;100095.59;;;36.99;44.40
2268;BME280;11052;43.338;25.502;2022-08-19T10:44:06;100097.66;;;36.79;43.47
2268;BME280;11052;43.338;25.502;2022-08-19T10:46:36;100085.94;;;36.60;44.89
2268;BME280;11052;43.338;25.502;2022-08-19T10:49:04;100083.75;;;36.75;44.64
2268;BME280;11052;43.338;25.502;2022-08-19T10:51:32;100089.63;;;36.65;43.78
2268;BME280;11052;43.338;25.502;2022-08-19T10:54:28;100083.97;;;36.17;44.07
2268;BME280;11052;43.338;25.502;2022-08-19T10:57:10;100080.59;;;35.90;45.64
2268;BME280;11052;43.338;25.502;2022-08-19T10:59:38;100076.31;;;35.69;45.43
2268;BME280;11052;43.338;25.502;2022-08-19T11:02:08;100080.13;;;35.55;45.92
2268;BME280;11052;43.338;25.502;2022-08-19T11:04:38;100062.28;;;35.99;46.07
2268;BME280;11052;43.338;25.502;2022-08-19T11:07:06;100072.63;;;36.40;45.83
2268;BME280;11052;43.338;25.502;2022-08-19T11:09:38;100071.84;;;36.33;43.93
2268;BME280;11052;43.338;25.502;2022-08-19T11:12:06;100076.78;;;36.61;44.78
2268;BME280;11052;43.338;25.502;2022-08-19T11:14:37;100073.94;;;36.81;44.30
2268;BME280;11052;43.338;25.502;2022-08-19T11:17:05;100078.97;;;36.95;43.52
2268;BME280;11052;43.338;25.502;2022-08-19T11:19:33;100069.00;;;36.71;43.63
2268;BME280;11052;43.338;25.502;2022-08-19T11:22:00;100059.44;;;36.75;44.48
2268;BME280;11052;43.338;25.502;2022-08-19T11:24:29;100063.22;;;36.67;44.28
2268;BME280;11052;43.338;25.502;2022-08-19T11:27:03;100071.72;;;36.46;44.91
2268;BME280;11052;43.338;25.502;2022-08-19T11:29:31;100066.69;;;35.93;44.92
2268;BME280;11052;43.338;25.502;2022-08-19T11:32:04;100064.28;;;35.72;45.39
2268;BME280;11052;43.338;25.502;2022-08-19T11:34:33;100065.13;;;35.66;45.60
2268;BME280;11052;43.338;25.502;2022-08-19T11:37:01;100051.69;;;35.59;46.58
2268;BME280;11052;43.338;25.502;2022-08-19T11:39:32;100052.66;;;35.71;44.95
2268;BME280;11052;43.338;25.502;2022-08-19T11:42:00;100043.44;;;35.92;44.72
2268;BME280;11052;43.338;25.502;2022-08-19T11:44:50;100054.72;;;36.14;44.93
2268;BME280;11052;43.338;25.502;2022-08-19T11:47:19;100049.13;;;35.71;45.08
2268;BME280;11052;43.338;25.502;2022-08-19T11:49:46;100040.63;;;35.67;46.32
2268;BME280;11052;43.338;25.502;2022-08-19T11:52:19;100036.84;;;35.43;46.24
2268;BME280;11052;43.338;25.502;2022-08-19T11:54:47;100037.66;;;35.44;44.65
2268;BME280;11052;43.338;25.502;2022-08-19T11:57:14;100035.63;;;35.26;46.59
2268;BME280;11052;43.338;25.502;2022-08-19T11:59:48;100033.41;;;35.10;46.10
2268;BME280;11052;43.338;25.502;2022-08-19T12:02:15;100021.72;;;35.36;46.10
2268;BME280;11052;43.338;25.502;2022-08-19T12:04:46;100022.84;;;35.60;44.06
2268;BME280;11052;43.338;25.502;2022-08-19T12:07:15;100027.72;;;35.83;44.67
2268;BME280;11052;43.338;25.502;2022-08-19T12:09:50;100028.25;;;35.98;43.39
2268;BME280;11052;43.338;25.502;2022-08-19T12:12:19;100023.66;;;35.98;44.76
2268;BME280;11052;43.338;25.502;2022-08-19T12:14:50;100031.84;;;35.85;44.06
2268;BME280;11052;43.338;25.502;2022-08-19T12:17:25;100029.03;;;35.67;44.30
2268;BME280;11052;43.338;25.502;2022-08-19T12:19:54;100026.03;;;35.50;44.88
2268;BME280;11052;43.338;25.502;2022-08-19T12:22:24;100020.78;;;35.55;45.69
2268;BME280;11052;43.338;25.502;2022-08-19T12:24:53;100018.84;;;35.69;45.04
2268;BME280;11052;43.338;25.502;2022-08-19T12:27:20;100016.78;;;36.02;43.04
2268;BME280;11052;43.338;25.502;2022-08-19T12:29:48;100014.16;;;36.21;41.96
2268;BME280;11052;43.338;25.502;2022-08-19T12:32:15;100015.91;;;36.08;42.23
2268;BME280;11052;43.338;25.502;2022-08-19T12:34:43;100006.16;;;36.07;42.91
2268;BME280;11052;43.338;25.502;2022-08-19T12:37:14;100003.97;;;36.23;43.98
2268;BME280;11052;43.338;25.502;2022-08-19T12:39:43;100012.00;;;36.36;42.64
2268;BME280;11052;43.338;25.502;2022-08-19T12:42:11;100008.09;;;36.50;41.58
2268;BME280;11052;43.338;25.502;2022-08-19T12:44:42;100006.66;;;36.23;43.25
2268;BME280;11052;43.338;25.502;2022-08-19T12:47:11;100007.66;;;36.35;43.51
2268;BME280;11052;43.338;25.502;2022-08-19T12:49:40;100012.81;;;36.36;41.24
2268;BME280;11052;43.338;25.502;2022-08-19T12:52:09;100015.00;;;36.46;41.74
2268;BME280;11052;43.338;25.502;2022-08-19T12:54:44;100009.91;;;36.38;41.98
2268;BME280;11052;43.338;25.502;2022-08-19T12:57:12;100010.03;;;36.43;42.84